Sheppard Air Force Base-Wichita Falls Municipal Airport
KSPS : now visible

Airfield :











YOU CAN JOIN US ON...

 
LOGIN :

Register | Disclaimer

   EN    FR    IT 

 









Legend :    VFR   Marginal VFR   IFR   Intensive IFR   Very Intensive IFR
Visi :
Ceiling :
>= 8 km
>= 3000ft
5 to 8 km
1000 to 3000 ft
1500m to 5 km
500 to 1000 ft
800 to 1500m
200 to 500 ft
< 800m
< 200 ft
Symbols :   Thunderstorms  Fog  Heavy snow  Heavy precipitations  Wind > 20 kt






- Airport Elevation : 1019 ft
- IATA code : SPS


KSPS - Sheppard Air Force Base-Wichita Falls Municipal

CURRENT METAR :
  • 200552Z 18019G27KT 10SM CLR 29/16 A2944 RMK AO2 PK WND 17028/0528 SLP951 T02890156 10378 20289 403830217 50003

EXPIRED METARs :
  • 200452Z 17020G28KT 10SM CLR 29/16 A2944 RMK AO2 PK WND 17033/0400 SLP952 T02940156
  • 200352Z 17022G29KT 10SM CLR 30/16 A2945 RMK AO2 PK WND 17032/0310 SLP955 T03000161

TAF KSPS
Valid from the 20 at 06:00 until the 21 at 06:00 UTC


200520Z 2006/2106 18020G30KT P6SM SKC WS020/18050KT
FM201000 19018KT P6SM SKC WS020/22045KT
FM201500 21020G28KT P6SM SCT250
FM202100 16020G28KT P6SM SCT200
KZFW FIR / North America



MET'MAP, your aeronautical weather chart ! - Copyright ORBIFLY December 2007 - Disclaimer

ORBIFLY MET'MAP TEAM :

Programming & Development : Alexandra Zaïnal
Original concept : Baudouin d'Aumeries
Technical & hardware support : Manuel Goepfert
Assistance : Marc-Olivier Méhu

Contact : metmap@orbifly.com




SOURCES & CREDITS :

   NOAA       Earth
Advisory